Time;durP1;ratioP1;P1;durP2;ratioP2;P2;SDS_P1;SDS_P2;PMS_P1;PMS_P2;Temp;Humidity;BMP_temperature;BMP_pressure;BME280_temperature;BME280_humidity;BME280_pressure;Samples;Min_cycle;Max_cycle;Signal;HPM_P1;HPM_P2
2021/12/20 00:00:13;;;;;;;0.30;0.20;;;;;;;1.52;100.00;94721.41;5131695;28;20474;-54
2021/12/20 00:02:42;;;;;;;0.30;0.20;;;;;;;0.89;100.00;94641.16;5132617;27;20502;-54
2021/12/20 00:05:12;;;;;;;0.30;0.20;;;;;;;1.51;100.00;94710.16;5132386;28;20423;-54
2021/12/20 00:07:40;;;;;;;0.30;0.30;;;;;;;1.33;100.00;94699.84;5132675;28;20514;-54
2021/12/20 00:10:09;;;;;;;0.73;0.73;;;;;;;1.68;100.00;94700.63;5132360;28;20466;-54
2021/12/20 00:12:37;;;;;;;0.43;0.43;;;;;;;1.43;100.00;94683.59;5132296;28;20574;-54
2021/12/20 00:15:07;;;;;;;0.30;0.20;;;;;;;1.10;100.00;94653.66;5132558;28;20437;-54
2021/12/20 00:17:37;;;;;;;0.30;0.20;;;;;;;1.50;100.00;94705.97;5132618;27;20431;-54
2021/12/20 00:20:07;;;;;;;0.30;0.20;;;;;;;1.90;99.42;94708.63;5132278;28;20443;-54
2021/12/20 00:22:35;;;;;;;0.30;0.20;;;;;;;1.87;97.91;94712.50;5132395;28;20427;-54
2021/12/20 00:25:05;;;;;;;0.30;0.30;;;;;;;1.67;97.05;94711.31;5132518;28;20426;-54
2021/12/20 00:27:34;;;;;;;0.30;0.20;;;;;;;1.46;100.00;94707.44;5132476;28;20812;-53
2021/12/20 00:30:02;;;;;;;0.30;0.20;;;;;;;1.60;99.89;94700.16;5132306;27;20502;-54
2021/12/20 00:32:32;;;;;;;0.87;0.87;;;;;;;0.63;99.86;94599.88;5132124;27;20516;-54
2021/12/20 00:35:02;;;;;;;3.93;1.77;;;;;;;0.99;100.00;94688.34;5132208;27;20429;-54
2021/12/20 00:40:22;;;;;;;1.30;1.20;;;;;;;0.52;100.00;94631.91;5135811;27;20418;-53
2021/12/20 00:42:54;;;;;;;0.30;0.20;;;;;;;1.52;100.00;94710.97;5135234;27;20831;-53
2021/12/20 00:45:24;;;;;;;0.30;0.20;;;;;;;1.31;100.00;94711.53;5135658;27;20887;-53
2021/12/20 00:47:53;;;;;;;0.30;0.20;;;;;;;0.45;99.39;94545.22;5135588;27;20882;-53
2021/12/20 00:50:25;;;;;;;0.30;0.30;;;;;;;1.38;100.00;94740.91;5136010;27;20502;-53
2021/12/20 00:52:53;;;;;;;0.30;0.20;;;;;;;1.51;100.00;94732.88;5135545;27;20474;-53
2021/12/20 00:55:24;;;;;;;0.30;0.20;;;;;;;1.55;100.00;94724.34;5135528;27;20471;-53
2021/12/20 00:57:53;;;;;;;0.60;0.60;;;;;;;1.59;100.00;94711.66;5135460;27;20422;-53
2021/12/20 01:00:24;;;;;;;0.30;0.20;;;;;;;1.67;100.00;94729.59;5135286;27;20514;-53
2021/12/20 01:02:54;;;;;;;0.30;0.30;;;;;;;1.65;100.00;94723.78;5134526;27;20467;-53
2021/12/20 01:05:26;;;;;;;1.53;1.27;;;;;;;1.50;100.00;94723.44;5135687;27;20454;-53
2021/12/20 01:07:57;;;;;;;0.30;0.20;;;;;;;1.57;100.00;94719.69;5135171;27;20427;-53
2021/12/20 01:10:28;;;;;;;0.40;0.40;;;;;;;1.58;100.00;94720.50;5135161;27;20419;-53
2021/12/20 01:12:59;;;;;;;0.30;0.20;;;;;;;1.47;100.00;94719.47;5135136;27;20498;-53
2021/12/20 01:15:33;;;;;;;0.30;0.20;;;;;;;1.24;100.00;94686.31;5135327;27;20505;-53
2021/12/20 01:18:03;;;;;;;0.30;0.20;;;;;;;1.38;100.00;94689.50;5135352;27;20499;-53
2021/12/20 01:20:35;;;;;;;0.30;0.30;;;;;;;1.72;100.00;94720.00;5135088;27;20885;-53
2021/12/20 01:23:04;;;;;;;0.30;0.20;;;;;;;1.08;99.53;94619.16;5135287;27;20806;-53
2021/12/20 01:25:33;;;;;;;0.30;0.30;;;;;;;0.60;98.49;94519.50;5134918;27;20501;-53
2021/12/20 01:28:01;;;;;;;0.30;0.20;;;;;;;1.65;97.46;94701.06;5135174;27;20461;-54
2021/12/20 01:30:30;;;;;;;0.30;0.30;;;;;;;1.68;98.67;94682.34;5134882;27;20989;-54
2021/12/20 01:32:58;;;;;;;0.50;0.50;;;;;;;1.82;96.63;94669.81;5134419;27;20966;-53
2021/12/20 01:35:28;;;;;;;0.30;0.30;;;;;;;1.72;97.00;94664.41;5134835;27;20426;-54
2021/12/20 01:37:58;;;;;;;1.13;1.13;;;;;;;1.80;96.51;94664.81;5134950;27;20459;-53
2021/12/20 01:40:27;;;;;;;0.30;0.20;;;;;;;1.05;99.52;94593.53;5135198;27;20458;-53
2021/12/20 01:42:57;;;;;;;5.33;3.07;;;;;;;1.65;97.60;94651.44;5134672;27;20485;-53
2021/12/20 01:45:28;;;;;;;0.50;0.50;;;;;;;1.76;97.83;94673.34;5134785;27;20482;-54
2021/12/20 01:48:05;;;;;;;0.30;0.20;;;;;;;1.35;99.84;94673.50;5134132;27;20942;-53
2021/12/20 01:50:49;;;;;;;0.30;0.30;;;;;;;1.37;100.00;94669.63;5134394;27;20980;-54
2021/12/20 01:53:23;;;;;;;0.53;0.53;;;;;;;1.24;100.00;94673.28;5133876;27;20521;-53
2021/12/20 01:55:55;;;;;;;0.40;0.40;;;;;;;0.65;100.00;94668.22;5134629;27;20472;-53
2021/12/20 01:58:24;;;;;;;0.30;0.23;;;;;;;0.32;100.00;94564.47;5134262;27;20466;-53
2021/12/20 02:03:43;;;;;;;0.70;0.63;;;;;;;0.34;100.00;94567.63;5134054;27;20864;-53
2021/12/20 02:06:25;;;;;;;1.17;1.17;;;;;;;0.96;100.00;94678.34;5134189;27;20426;-54
2021/12/20 02:08:55;;;;;;;0.30;0.30;;;;;;;0.51;100.00;94643.34;5134102;27;20471;-53
2021/12/20 02:11:25;;;;;;;0.30;0.20;;;;;;;0.18;100.00;94580.53;5133709;27;20425;-53
2021/12/20 02:13:54;;;;;;;0.50;0.50;;;;;;;0.56;100.00;94612.19;5133874;27;20509;-53
2021/12/20 02:16:23;;;;;;;0.30;0.30;;;;;;;1.03;100.00;94647.75;5133472;27;20453;-53
2021/12/20 02:18:51;;;;;;;0.30;0.20;;;;;;;0.81;100.00;94646.69;5133868;27;20431;-53
2021/12/20 02:21:22;;;;;;;0.40;0.30;;;;;;;1.02;100.00;94642.75;5133879;27;20423;-53
2021/12/20 02:23:51;;;;;;;0.27;0.20;;;;;;;-0.53;100.00;94393.09;5133685;27;20480;-53
2021/12/20 02:26:20;;;;;;;0.60;0.60;;;;;;;0.88;100.00;94634.38;5134072;27;20446;-53
2021/12/20 02:28:51;;;;;;;0.27;0.20;;;;;;;1.06;100.00;94649.88;5133720;27;20518;-53
2021/12/20 02:37:17;;;;;;;0.30;0.30;;;;;;;0.14;100.00;94584.56;5133595;27;20433;-53
2021/12/20 02:39:47;;;;;;;1.33;1.33;;;;;;;0.59;100.00;94640.44;5133799;27;20861;-53
2021/12/20 02:42:20;;;;;;;1.13;1.03;;;;;;;0.83;100.00;94649.09;5133525;27;20434;-53
2021/12/20 02:44:58;;;;;;;0.30;0.20;;;;;;;1.10;100.00;94647.63;5133521;27;20878;-53
2021/12/20 02:47:29;;;;;;;0.30;0.20;;;;;;;1.14;100.00;94644.34;5131999;27;20855;-53
2021/12/20 02:49:59;;;;;;;0.30;0.30;;;;;;;0.53;100.00;94545.66;5133443;27;20462;-53
2021/12/20 02:52:29;;;;;;;0.50;0.50;;;;;;;-0.76;100.00;94406.84;5132775;27;20466;-53
2021/12/20 02:54:57;;;;;;;0.30;0.20;;;;;;;0.58;100.00;94639.63;5132915;27;20982;-53
2021/12/20 02:57:26;;;;;;;0.30;0.20;;;;;;;-0.39;100.00;94460.34;5133286;27;20433;-53
2021/12/20 02:59:54;;;;;;;0.30;0.20;;;;;;;0.44;100.00;94640.84;5132632;27;20541;-53
2021/12/20 03:02:23;;;;;;;0.30;0.20;;;;;;;0.51;100.00;94643.34;5133173;27;20473;-53
2021/12/20 03:04:52;;;;;;;0.20;0.20;;;;;;;0.48;100.00;94625.56;5133234;27;20462;-53
2021/12/20 03:07:25;;;;;;;0.30;0.20;;;;;;;0.35;100.00;94644.00;5133084;27;20953;-53
2021/12/20 03:10:01;;;;;;;0.23;0.20;;;;;;;0.91;100.00;94635.72;5133348;27;20414;-53
2021/12/20 03:12:32;;;;;;;0.30;0.20;;;;;;;1.07;100.00;94614.16;5133056;27;20469;-53
2021/12/20 03:15:08;;;;;;;0.30;0.20;;;;;;;1.19;100.00;94639.22;5132845;27;20509;-53
2021/12/20 03:17:36;;;;;;;1.13;0.30;;;;;;;0.84;100.00;94635.81;5132965;27;20471;-53
2021/12/20 03:20:06;;;;;;;5.10;1.03;;;;;;;0.61;100.00;94630.56;5133044;27;20467;-53
2021/12/20 03:22:35;;;;;;;1.80;1.70;;;;;;;-1.46;100.00;94397.91;5133525;28;20517;-53
2021/12/20 03:25:06;;;;;;;0.40;0.40;;;;;;;0.18;100.00;94641.22;5133078;28;20475;-53
2021/12/20 03:27:34;;;;;;;0.63;0.63;;;;;;;0.40;100.00;94634.50;5132329;28;20462;-53
2021/12/20 03:30:05;;;;;;;0.30;0.30;;;;;;;0.02;100.00;94610.59;5132661;28;20465;-53
2021/12/20 03:32:34;;;;;;;0.27;0.20;;;;;;;0.52;100.00;94566.75;5132541;27;20455;-53
2021/12/20 03:35:02;;;;;;;0.40;0.40;;;;;;;0.83;100.00;94629.03;5132894;28;20541;-53
2021/12/20 03:37:30;;;;;;;0.27;0.20;;;;;;;0.55;100.00;94621.06;5132855;28;20459;-53
2021/12/20 03:39:59;;;;;;;0.50;0.50;;;;;;;0.48;100.00;94605.50;5132566;28;20459;-53
2021/12/20 03:42:29;;;;;;;1.37;1.37;;;;;;;0.91;100.00;94659.97;5132812;28;20525;-53
2021/12/20 03:44:58;;;;;;;0.30;0.20;;;;;;;0.63;100.00;94665.81;5132821;27;20474;-53
2021/12/20 03:47:26;;;;;;;3.23;1.07;;;;;;;0.57;100.00;94655.50;5132862;28;21037;-53
2021/12/20 03:49:55;;;;;;;0.37;0.30;;;;;;;0.52;100.00;94668.41;5132881;28;20449;-53
2021/12/20 03:52:23;;;;;;;0.50;0.50;;;;;;;0.28;100.00;94627.69;5133019;28;20462;-54
2021/12/20 03:54:52;;;;;;;0.30;0.20;;;;;;;0.28;100.00;94570.34;5132932;28;20561;-53
2021/12/20 03:57:20;;;;;;;0.30;0.20;;;;;;;0.69;100.00;94658.94;5132690;28;20957;-53
2021/12/20 03:59:54;;;;;;;0.30;0.30;;;;;;;0.39;100.00;94617.28;5132478;28;20474;-53
2021/12/20 04:02:23;;;;;;;0.53;0.53;;;;;;;0.69;100.00;94652.91;5132469;28;20989;-53
2021/12/20 04:04:52;;;;;;;1.13;1.13;;;;;;;0.67;100.00;94613.22;5132057;28;20463;-53
2021/12/20 04:07:20;;;;;;;0.30;0.30;;;;;;;0.91;100.00;94654.75;5131966;27;20878;-53
2021/12/20 04:09:49;;;;;;;11.70;2.00;;;;;;;-0.22;100.00;94541.19;5132345;27;20429;-53
2021/12/20 04:12:17;;;;;;;0.30;0.20;;;;;;;0.27;100.00;94626.06;5136796;27;20418;-53
2021/12/20 04:14:46;;;;;;;1.07;0.83;;;;;;;0.60;100.00;94655.88;5136273;27;20457;-53
2021/12/20 04:17:16;;;;;;;1.70;0.57;;;;;;;0.52;100.00;94666.59;5136475;27;20946;-53
2021/12/20 04:19:45;;;;;;;4.67;1.33;;;;;;;0.34;100.00;94626.78;5136321;27;20818;-53
2021/12/20 04:22:14;;;;;;;0.30;0.20;;;;;;;0.41;100.00;94682.19;5136743;27;20510;-53
2021/12/20 04:24:43;;;;;;;0.20;0.20;;;;;;;0.27;100.00;94680.81;5136247;27;20495;-53
2021/12/20 04:27:11;;;;;;;0.30;0.20;;;;;;;-0.10;100.00;94665.22;5136258;27;20426;-53
2021/12/20 04:29:40;;;;;;;1.10;1.10;;;;;;;0.52;100.00;94673.63;5136411;27;20434;-53
2021/12/20 04:32:09;;;;;;;0.60;0.60;;;;;;;0.21;100.00;94650.41;5136447;27;20446;-53
2021/12/20 04:34:38;;;;;;;2.30;1.60;;;;;;;0.26;100.00;94684.41;5135924;27;21043;-53
2021/12/20 04:37:08;;;;;;;1.30;1.30;;;;;;;0.30;100.00;94682.97;5136011;27;20434;-53
2021/12/20 04:39:36;;;;;;;0.50;0.50;;;;;;;0.14;100.00;94673.97;5136311;27;20510;-53
2021/12/20 04:42:05;;;;;;;0.30;0.20;;;;;;;-0.68;100.00;94494.97;5135930;27;20837;-53
2021/12/20 04:44:33;;;;;;;0.43;0.43;;;;;;;0.58;100.00;94663.09;5135452;27;20526;-53
2021/12/20 04:47:02;;;;;;;1.13;1.13;;;;;;;0.35;100.00;94644.81;5135853;27;20411;-53
2021/12/20 04:49:30;;;;;;;0.63;0.63;;;;;;;0.02;100.00;94641.06;5135870;27;20418;-53
2021/12/20 04:52:00;;;;;;;1.80;1.80;;;;;;;0.41;100.00;94645.72;5135619;27;20525;-53
2021/12/20 04:54:29;;;;;;;0.53;0.43;;;;;;;-0.13;100.00;94654.47;5136065;27;20511;-53
2021/12/20 04:56:57;;;;;;;1.40;1.40;;;;;;;-0.10;100.00;94696.47;5135931;27;20517;-53
2021/12/20 04:59:26;;;;;;;3.00;1.10;;;;;;;-0.12;100.00;94616.97;5135423;27;20978;-53
2021/12/20 05:01:54;;;;;;;0.83;0.83;;;;;;;0.44;100.00;94697.41;5135808;27;20461;-53
2021/12/20 05:04:22;;;;;;;2.00;1.20;;;;;;;0.44;100.00;94679.16;5135886;27;20876;-53
2021/12/20 05:06:51;;;;;;;10.50;2.60;;;;;;;-0.23;100.00;94717.47;5135854;27;20800;-53
2021/12/20 05:09:25;;;;;;;2.10;1.93;;;;;;;0.07;100.00;94719.34;5135715;27;20419;-53
2021/12/20 05:12:01;;;;;;;2.67;2.47;;;;;;;0.30;100.00;94682.97;5135388;27;20511;-53
2021/12/20 05:14:29;;;;;;;0.40;0.40;;;;;;;-0.18;100.00;94716.81;5135209;27;20425;-53
2021/12/20 05:16:58;;;;;;;1.60;1.50;;;;;;;-0.08;100.00;94722.31;5135098;27;20466;-53
2021/12/20 05:19:26;;;;;;;0.53;0.53;;;;;;;-0.33;100.00;94685.94;5134838;27;20446;-53
2021/12/20 05:21:56;;;;;;;0.30;0.27;;;;;;;-0.02;100.00;94719.63;5134600;27;20525;-53
2021/12/20 05:24:26;;;;;;;3.70;3.50;;;;;;;-0.35;100.00;94708.78;5135533;27;20421;-53
2021/12/20 05:26:54;;;;;;;0.30;0.20;;;;;;;-0.08;100.00;94715.28;5135362;27;20411;-53
2021/12/20 05:29:24;;;;;;;6.33;1.13;;;;;;;-0.02;100.00;94683.16;5134790;27;20458;-53
2021/12/20 05:31:53;;;;;;;2.70;2.50;;;;;;;-0.30;100.00;94736.75;5134738;27;20447;-53
2021/12/20 05:34:22;;;;;;;0.97;0.93;;;;;;;-0.22;100.00;94719.06;5134508;27;20442;-53
2021/12/20 05:36:50;;;;;;;0.20;0.20;;;;;;;0.22;100.00;94741.41;5134623;27;20513;-53
2021/12/20 05:39:18;;;;;;;0.97;0.97;;;;;;;-0.05;100.00;94667.16;5134459;27;20430;-52
2021/12/20 05:41:48;;;;;;;2.40;2.40;;;;;;;0.50;100.00;94749.47;5134561;27;20506;-53
2021/12/20 05:44:17;;;;;;;0.20;0.20;;;;;;;0.34;100.00;94691.94;5134527;27;20434;-52
2021/12/20 05:46:45;;;;;;;1.53;1.53;;;;;;;0.66;100.00;94744.66;5134748;27;20839;-53
2021/12/20 05:49:14;;;;;;;0.30;0.27;;;;;;;0.08;100.00;94679.25;5134404;27;20426;-53
2021/12/20 05:51:42;;;;;;;1.03;0.63;;;;;;;-0.05;100.00;94724.47;5134592;27;20466;-54
2021/12/20 05:54:10;;;;;;;0.60;0.60;;;;;;;0.16;100.00;94746.69;5134180;27;20900;-53
2021/12/20 05:56:39;;;;;;;0.63;0.63;;;;;;;0.53;100.00;94764.66;5134233;27;20497;-53
2021/12/20 05:59:09;;;;;;;0.30;0.30;;;;;;;0.50;100.00;94753.88;5133743;27;20502;-53
2021/12/20 06:01:37;;;;;;;0.70;0.70;;;;;;;-0.09;100.00;94765.78;5133943;27;20480;-54
2021/12/20 06:04:06;;;;;;;2.70;2.60;;;;;;;-0.36;100.00;94693.38;5134146;27;20466;-54
2021/12/20 06:06:34;;;;;;;0.63;0.63;;;;;;;0.43;100.00;94768.81;5134160;27;20918;-54
2021/12/20 06:09:03;;;;;;;0.50;0.50;;;;;;;0.29;100.00;94743.91;5133901;27;20459;-54
2021/12/20 06:11:32;;;;;;;0.67;0.67;;;;;;;0.27;100.00;94738.94;5134150;27;20431;-53
2021/12/20 06:14:00;;;;;;;1.70;1.60;;;;;;;0.41;100.00;94765.59;5133881;27;20582;-54
2021/12/20 06:16:30;;;;;;;1.67;1.67;;;;;;;0.48;100.00;94772.31;5133586;27;20499;-53
2021/12/20 06:18:58;;;;;;;0.70;0.60;;;;;;;0.43;100.00;94755.78;5133546;27;20515;-53
2021/12/20 06:21:27;;;;;;;1.80;1.80;;;;;;;0.51;100.00;94777.09;5134224;27;20821;-53
2021/12/20 06:23:56;;;;;;;1.83;1.83;;;;;;;-1.69;100.00;94428.94;5133748;27;20879;-53
2021/12/20 06:26:24;;;;;;;3.43;3.20;;;;;;;0.83;100.00;94790.75;5134033;27;20505;-53
2021/12/20 06:28:54;;;;;;;2.77;2.67;;;;;;;1.08;100.00;94787.97;5134108;27;20427;-53
2021/12/20 06:31:23;;;;;;;1.23;1.23;;;;;;;0.69;100.00;94788.50;5133650;27;20518;-53
2021/12/20 06:33:52;;;;;;;1.80;1.70;;;;;;;0.23;100.00;94726.56;5133752;27;20426;-53
2021/12/20 06:36:21;;;;;;;4.80;4.60;;;;;;;-0.20;100.00;94622.50;5133485;27;20481;-53
2021/12/20 06:38:50;;;;;;;1.80;1.80;;;;;;;1.40;100.00;94780.66;5134303;27;20426;-53
2021/12/20 06:41:20;;;;;;;0.60;0.60;;;;;;;2.02;100.00;94806.13;5133577;27;20541;-55
2021/12/20 06:43:49;;;;;;;1.80;1.70;;;;;;;2.38;97.77;94805.03;5133348;27;20517;-55
2021/12/20 06:46:19;;;;;;;0.37;0.37;;;;;;;2.60;96.48;94824.31;5133352;27;20882;-54
2021/12/20 06:48:47;;;;;;;4.87;4.27;;;;;;;2.61;91.50;94778.81;5133531;27;20522;-54
2021/12/20 06:51:17;;;;;;;2.43;2.23;;;;;;;3.14;91.51;94810.69;5133272;27;20533;-54
2021/12/20 06:53:46;;;;;;;0.97;0.97;;;;;;;3.32;89.66;94812.28;5133169;27;20999;-54
2021/12/20 06:56:14;;;;;;;0.73;0.73;;;;;;;3.93;83.27;94811.44;5133157;27;20474;-54
2021/12/20 06:58:43;;;;;;;0.93;0.93;;;;;;;4.36;78.97;94787.13;5132544;27;20446;-54
2021/12/20 07:01:11;;;;;;;2.23;2.00;;;;;;;4.79;77.07;94789.75;5132472;27;20570;-54
2021/12/20 07:03:41;;;;;;;1.90;0.90;;;;;;;4.98;72.33;94819.88;5133128;27;20465;-51
2021/12/20 07:06:09;;;;;;;5.80;5.30;;;;;;;5.31;68.54;94810.25;5133129;27;20434;-52
2021/12/20 07:08:39;;;;;;;2.17;2.07;;;;;;;5.62;65.25;94791.84;5133034;27;20900;-53
2021/12/20 07:11:08;;;;;;;1.00;1.00;;;;;;;6.35;63.76;94801.56;5133185;27;20441;-53
2021/12/20 07:13:37;;;;;;;2.50;2.40;;;;;;;6.32;61.19;94786.28;5132092;27;20465;-51
2021/12/20 07:16:06;;;;;;;1.43;1.33;;;;;;;6.16;59.54;94797.78;5132612;27;20901;-51
2021/12/20 07:18:35;;;;;;;6.83;4.13;;;;;;;6.07;59.35;94778.25;5131905;27;20438;-51
2021/12/20 07:21:07;;;;;;;2.10;2.00;;;;;;;5.31;62.44;94795.28;5133004;27;20430;-51
2021/12/20 07:23:35;;;;;;;10.53;3.57;;;;;;;5.81;61.35;94813.31;5133102;27;20874;-51
2021/12/20 07:26:10;;;;;;;6.60;2.33;;;;;;;5.87;59.22;94798.38;5132725;28;20480;-51
2021/12/20 07:28:40;;;;;;;4.23;3.00;;;;;;;5.91;62.12;94816.03;5132002;28;20483;-51
2021/12/20 07:31:09;;;;;;;2.97;2.77;;;;;;;6.29;58.25;94826.31;5132145;28;20469;-51
2021/12/20 07:33:38;;;;;;;4.37;3.43;;;;;;;5.38;61.44;94847.63;5131720;28;20981;-51
2021/12/20 07:36:07;;;;;;;3.60;3.50;;;;;;;6.51;57.94;94846.41;5132910;28;20546;-51
2021/12/20 07:38:38;;;;;;;7.70;2.87;;;;;;;5.66;59.69;94842.91;5132556;27;20426;-54
2021/12/20 07:41:08;;;;;;;2.30;1.43;;;;;;;6.33;59.18;94840.53;5132529;28;20454;-51
2021/12/20 07:43:36;;;;;;;2.37;2.17;;;;;;;6.85;57.50;94845.03;5132679;28;20455;-51
2021/12/20 07:46:05;;;;;;;5.40;2.80;;;;;;;7.92;55.33;94849.50;5134864;27;20502;-51
2021/12/20 07:48:33;;;;;;;2.00;1.90;;;;;;;7.50;53.50;94800.38;5137113;27;20418;-51
2021/12/20 07:51:02;;;;;;;2.40;2.30;;;;;;;8.00;52.54;94773.22;5136855;27;20882;-51
2021/12/20 07:53:30;;;;;;;3.10;1.63;;;;;;;7.43;50.22;94617.97;5137020;27;20516;-51
2021/12/20 07:55:59;;;;;;;1.87;1.77;;;;;;;9.03;49.67;94836.09;5136708;27;20509;-52
2021/12/20 07:58:29;;;;;;;4.73;4.27;;;;;;;8.63;48.97;94853.66;5136687;27;20510;-52
2021/12/20 08:00:58;;;;;;;1.80;1.70;;;;;;;9.51;47.88;94844.03;5136351;27;20497;-53
2021/12/20 08:03:27;;;;;;;2.20;2.10;;;;;;;9.78;46.49;94821.66;5136850;27;20427;-53
2021/12/20 08:05:56;;;;;;;6.27;2.37;;;;;;;9.89;46.76;94849.63;5136806;27;20437;-53
2021/12/20 08:08:24;;;;;;;3.03;2.93;;;;;;;10.79;45.50;94848.84;5136711;27;20426;-54
2021/12/20 08:10:54;;;;;;;1.43;1.33;;;;;;;10.11;44.20;94842.84;5135652;27;20491;-55
2021/12/20 08:13:22;;;;;;;0.80;0.80;;;;;;;11.71;42.53;94833.41;5135972;27;20915;-55
2021/12/20 08:15:56;;;;;;;2.77;2.57;;;;;;;11.02;41.27;94794.25;5136075;27;20930;-56
2021/12/20 08:18:24;;;;;;;2.30;2.20;;;;;;;11.35;41.81;94835.72;5135972;27;20562;-56
2021/12/20 08:20:53;;;;;;;1.13;1.13;;;;;;;11.96;40.89;94830.38;5135933;27;20461;-59
2021/12/20 08:23:21;;;;;;;2.83;1.97;;;;;;;11.48;41.22;94834.25;5136213;27;20462;-61
2021/12/20 08:25:49;;;;;;;1.63;1.60;;;;;;;11.46;42.01;94834.50;5136187;27;20501;-62
2021/12/20 08:28:18;;;;;;;3.47;3.27;;;;;;;11.69;41.30;94837.44;5136076;27;20453;-62
2021/12/20 08:30:47;;;;;;;1.80;1.70;;;;;;;11.99;41.03;94844.94;5135645;27;20455;-61
2021/12/20 08:33:16;;;;;;;2.27;2.17;;;;;;;11.86;40.11;94830.53;5135342;27;20426;-60
2021/12/20 08:35:49;;;;;;;2.70;2.60;;;;;;;12.70;39.79;94832.03;5134953;27;20505;-60
2021/12/20 08:38:18;;;;;;;5.40;1.70;;;;;;;11.93;40.78;94836.28;5135465;27;20490;-59
2021/12/20 08:40:48;;;;;;;9.70;3.77;;;;;;;12.40;40.00;94831.78;5135597;27;20827;-58
2021/12/20 08:43:17;;;;;;;3.17;2.27;;;;;;;11.81;39.58;94832.47;5135999;27;20442;-58
2021/12/20 08:45:46;;;;;;;1.83;1.73;;;;;;;12.52;39.31;94829.47;5135681;27;20415;-57
2021/12/20 08:48:14;;;;;;;1.53;1.43;;;;;;;12.40;38.18;94834.44;5135743;27;20485;-57
2021/12/20 08:50:44;;;;;;;2.07;1.97;;;;;;;12.59;39.30;94828.00;5135519;27;20438;-56
2021/12/20 08:53:16;;;;;;;7.50;2.03;;;;;;;12.89;38.42;94815.22;5135642;27;20774;-56
2021/12/20 08:55:44;;;;;;;2.77;1.30;;;;;;;13.76;36.65;94835.25;5135412;27;20454;-55
2021/12/20 08:58:13;;;;;;;1.00;1.00;;;;;;;13.95;35.82;94824.44;5134145;27;20509;-55
2021/12/20 09:00:42;;;;;;;1.10;1.10;;;;;;;14.83;34.10;94825.47;5135216;27;20577;-55
2021/12/20 09:03:10;;;;;;;2.83;1.13;;;;;;;14.94;34.34;94822.25;5135525;27;20427;-55
2021/12/20 09:05:39;;;;;;;3.87;3.57;;;;;;;14.52;35.02;94818.25;5135520;27;20419;-55
2021/12/20 09:08:10;;;;;;;10.03;2.97;;;;;;;15.30;34.86;94822.06;5135320;27;20437;-55
2021/12/20 09:10:39;;;;;;;1.67;1.43;;;;;;;15.69;34.66;94810.50;5135132;27;20465;-55
2021/12/20 09:13:07;;;;;;;2.07;1.10;;;;;;;15.98;33.01;94818.72;5135276;27;20502;-55
2021/12/20 09:15:36;;;;;;;3.33;2.43;;;;;;;15.23;35.35;94816.34;5135164;27;20505;-55
2021/12/20 09:18:06;;;;;;;0.93;0.93;;;;;;;15.74;32.88;94819.16;5135356;27;20515;-55
2021/12/20 09:20:36;;;;;;;8.50;2.90;;;;;;;15.30;34.02;94813.25;5135022;27;20517;-55
2021/12/20 09:23:07;;;;;;;4.03;3.73;;;;;;;14.68;35.16;94746.66;5135245;27;20461;-55
2021/12/20 09:25:39;;;;;;;2.87;2.67;;;;;;;13.61;36.93;94811.59;5134951;27;20415;-54
2021/12/20 09:28:10;;;;;;;4.80;3.43;;;;;;;14.58;36.09;94809.03;5134873;27;20513;-53
2021/12/20 09:30:40;;;;;;;3.10;2.33;;;;;;;15.16;35.89;94808.81;5134813;27;20923;-54
2021/12/20 09:33:09;;;;;;;3.70;3.40;;;;;;;16.22;34.29;94802.97;5134870;27;20450;-54
2021/12/20 09:35:38;;;;;;;4.03;3.57;;;;;;;16.82;32.69;94794.06;5135105;27;20513;-53
2021/12/20 09:38:10;;;;;;;3.57;3.33;;;;;;;17.49;32.58;94788.66;5133689;27;20873;-54
2021/12/20 09:40:42;;;;;;;3.83;3.47;;;;;;;16.33;32.89;94796.19;5134945;27;20509;-54
2021/12/20 09:43:14;;;;;;;4.53;4.13;;;;;;;15.88;33.65;94786.97;5134528;27;20494;-54
2021/12/20 09:45:46;;;;;;;10.47;3.47;;;;;;;15.59;34.88;94798.25;5134468;27;20525;-54
2021/12/20 09:48:14;;;;;;;6.93;4.33;;;;;;;16.41;33.37;94784.69;5134892;27;20842;-54
2021/12/20 09:50:43;;;;;;;1.90;1.80;;;;;;;16.53;33.00;94786.72;5134314;27;20475;-54
2021/12/20 09:53:11;;;;;;;4.30;3.97;;;;;;;17.08;32.58;94782.13;5134370;27;20440;-55
2021/12/20 09:55:46;;;;;;;11.13;2.17;;;;;;;18.11;31.92;94756.53;5134006;27;20426;-54
2021/12/20 09:58:15;;;;;;;2.73;1.33;;;;;;;19.87;29.55;94774.91;5134322;27;20585;-54
2021/12/20 10:00:44;;;;;;;2.60;2.40;;;;;;;18.69;30.08;94764.31;5133952;27;20509;-54
2021/12/20 10:03:13;;;;;;;2.93;2.57;;;;;;;18.09;31.20;94758.75;5133986;27;20438;-54
2021/12/20 10:05:41;;;;;;;7.50;2.40;;;;;;;18.50;31.01;94761.38;5133785;27;20426;-54
2021/12/20 10:08:14;;;;;;;2.67;2.57;;;;;;;18.06;31.50;94760.22;5133699;27;20438;-54
2021/12/20 10:10:47;;;;;;;19.03;3.70;;;;;;;18.02;31.78;94764.66;5133989;27;20430;-54
2021/12/20 10:13:24;;;;;;;7.53;2.43;;;;;;;18.72;30.36;94714.56;5133939;27;20443;-54
2021/12/20 10:15:56;;;;;;;2.37;1.50;;;;;;;19.52;29.72;94755.84;5133865;27;20480;-54
2021/12/20 10:18:26;;;;;;;1.33;1.23;;;;;;;20.16;29.45;94742.31;5133728;27;20539;-54
2021/12/20 10:20:56;;;;;;;4.40;4.20;;;;;;;18.55;29.77;94753.09;5133702;27;20890;-52
2021/12/20 10:23:26;;;;;;;4.47;3.10;;;;;;;19.02;29.20;94756.94;5133193;27;20435;-52
2021/12/20 10:25:59;;;;;;;11.50;2.73;;;;;;;18.90;28.28;94753.47;5133551;27;20427;-52
2021/12/20 10:28:34;;;;;;;1.37;1.33;;;;;;;20.35;27.47;94768.59;5133296;27;20438;-52
2021/12/20 10:31:06;;;;;;;1.80;1.57;;;;;;;19.96;27.77;94737.94;5133565;27;20514;-52
2021/12/20 10:33:35;;;;;;;1.73;1.63;;;;;;;20.16;27.01;94739.63;5133476;27;20459;-52
2021/12/20 10:36:06;;;;;;;3.50;2.80;;;;;;;19.07;27.38;94747.91;5133694;27;20459;-53
2021/12/20 10:38:38;;;;;;;0.87;0.80;;;;;;;18.37;25.23;94754.38;5133488;27;20569;-52
2021/12/20 10:41:12;;;;;;;0.40;0.40;;;;;;;17.22;24.20;94757.78;5133642;27;20559;-51
2021/12/20 10:43:48;;;;;;;0.70;0.33;;;;;;;16.43;25.17;94745.03;5133447;27;20489;-51
2021/12/20 10:46:20;;;;;;;0.50;0.30;;;;;;;16.61;26.00;94748.47;5133089;27;20418;-51
2021/12/20 10:48:50;;;;;;;0.50;0.30;;;;;;;17.67;24.70;94747.28;5133089;27;20426;-52
2021/12/20 10:51:22;;;;;;;0.50;0.40;;;;;;;17.15;26.67;94744.91;5133125;27;20468;-51
2021/12/20 10:53:58;;;;;;;0.40;0.30;;;;;;;17.00;24.74;94742.78;5132955;27;20598;-51
2021/12/20 10:56:29;;;;;;;0.40;0.20;;;;;;;17.61;24.03;94682.38;5133330;27;20423;-51
2021/12/20 10:59:00;;;;;;;0.60;0.37;;;;;;;17.08;24.08;94743.84;5132615;27;20565;-51
2021/12/20 11:04:20;;;;;;;1.23;0.60;;;;;;;17.26;24.06;94745.31;5132791;27;20458;-51
2021/12/20 11:07:03;;;;;;;0.33;0.20;;;;;;;17.27;23.08;94740.75;5132861;27;20422;-51
2021/12/20 11:09:34;;;;;;;0.40;0.30;;;;;;;17.50;22.71;94740.13;5132783;27;20501;-51
2021/12/20 11:12:06;;;;;;;0.40;0.30;;;;;;;19.08;25.72;94748.66;5132307;27;20423;-51
2021/12/20 11:14:36;;;;;;;0.70;0.40;;;;;;;17.88;23.16;94740.00;5132730;27;20495;-51
2021/12/20 11:17:11;;;;;;;0.40;0.30;;;;;;;18.12;22.09;94734.72;5132447;27;20426;-51
2021/12/20 11:19:40;;;;;;;0.40;0.30;;;;;;;17.87;21.97;94743.78;5131871;27;20973;-51
2021/12/20 11:22:11;;;;;;;0.40;0.27;;;;;;;18.03;22.89;94738.63;5132386;27;20430;-51
2021/12/20 11:24:42;;;;;;;0.30;0.20;;;;;;;16.66;22.46;94747.50;5132857;27;20529;-51
2021/12/20 11:27:16;;;;;;;1.27;0.40;;;;;;;17.43;22.71;94739.06;5132340;28;20419;-50
2021/12/20 11:29:46;;;;;;;0.40;0.30;;;;;;;16.94;22.67;94740.63;5132587;28;20447;-51
2021/12/20 11:32:16;;;;;;;0.40;0.20;;;;;;;17.68;22.12;94744.25;5132521;28;20474;-51
2021/12/20 11:34:44;;;;;;;0.40;0.30;;;;;;;17.58;22.46;94741.19;5132666;28;20430;-51
2021/12/20 11:37:14;;;;;;;0.40;0.20;;;;;;;17.44;22.63;94728.03;5131878;28;20544;-51
2021/12/20 11:39:44;;;;;;;0.40;0.20;;;;;;;16.45;22.65;94731.31;5132551;28;20549;-51
2021/12/20 11:42:14;;;;;;;0.50;0.40;;;;;;;17.10;22.66;94726.34;5132879;28;20476;-51
2021/12/20 11:44:45;;;;;;;0.40;0.20;;;;;;;15.72;23.62;94735.06;5131541;27;20525;-51
2021/12/20 11:47:24;;;;;;;0.40;0.20;;;;;;;16.89;23.34;94735.44;5132419;28;20454;-51
2021/12/20 11:49:59;;;;;;;0.40;0.20;;;;;;;18.04;24.59;94724.06;5132190;27;20441;-51
2021/12/20 11:52:33;;;;;;;0.40;0.30;;;;;;;18.45;23.92;94725.88;5132557;27;20466;-51
2021/12/20 11:55:16;;;;;;;0.40;0.30;;;;;;;18.75;33.74;94736.13;5132404;28;20426;-51
2021/12/20 11:57:47;;;;;;;0.70;0.30;;;;;;;17.30;23.17;94729.38;5132287;28;20472;-51
2021/12/20 12:00:25;;;;;;;0.40;0.20;;;;;;;15.09;23.66;94731.06;5132324;27;20581;-51